createdAt,value
2018-06-25T15:51:20.624Z,22.40
2018-06-25T15:53:51.323Z,21.60
2018-06-25T15:56:22.354Z,21.50
2018-06-25T15:58:52.997Z,21.50
2018-06-25T16:01:23.641Z,21.50
2018-06-25T16:03:54.295Z,21.60
2018-06-25T16:08:55.019Z,21.50
2018-06-25T16:11:25.699Z,21.50
2018-06-25T16:13:56.361Z,21.70
2018-06-25T16:16:27.062Z,21.70
2018-06-25T16:18:57.806Z,21.80
2018-06-25T16:21:28.429Z,21.70
2018-06-25T16:23:59.188Z,21.70
2018-06-25T16:26:30.206Z,21.60
2018-06-25T16:29:00.960Z,21.50
2018-06-25T16:31:31.746Z,21.60
2018-06-25T16:34:02.563Z,21.60
2018-06-25T16:36:33.215Z,21.60
2018-06-25T16:41:34.338Z,21.60
2018-06-25T16:44:05.067Z,21.60
2018-06-25T16:46:35.816Z,21.50
2018-06-25T16:49:06.755Z,21.50
2018-06-25T16:51:37.637Z,21.30
2018-06-25T16:54:08.415Z,21.40
2018-06-25T16:56:39.047Z,21.30
2018-06-25T16:59:09.661Z,21.30
2018-06-25T17:01:41.170Z,21.30
2018-06-25T17:06:42.091Z,21.20
2018-06-25T17:09:13.477Z,21.20
2018-06-25T17:11:44.658Z,21.20
2018-06-25T17:14:15.327Z,21.10
2018-06-25T17:16:46.053Z,21.20
2018-06-25T17:19:16.818Z,21.10
2018-06-25T17:21:47.543Z,21.00
2018-06-25T17:26:48.442Z,20.90
2018-06-25T17:29:20.062Z,20.80
2018-06-25T17:31:50.862Z,20.70
2018-06-25T17:34:21.454Z,20.60
2018-06-25T17:36:51.990Z,20.60
2018-06-25T17:39:22.716Z,20.50
2018-06-25T17:41:53.438Z,20.50
2018-06-25T17:44:24.169Z,20.40
2018-06-25T17:46:56.325Z,20.30
2018-06-25T17:49:27.965Z,20.30
2018-06-25T17:51:59.026Z,20.30
2018-06-25T17:54:29.896Z,20.30
2018-06-25T17:57:00.608Z,20.20
2018-06-25T17:59:31.433Z,20.20
2018-06-25T18:02:02.235Z,20.10
2018-06-25T18:04:33.111Z,20.10
2018-06-25T18:07:03.872Z,20.00
2018-06-25T18:09:34.580Z,20.00
2018-06-25T18:12:05.326Z,19.90
2018-06-25T18:14:36.225Z,20.00
2018-06-25T18:17:07.030Z,19.90
2018-06-25T18:19:37.745Z,19.90
2018-06-25T18:22:08.474Z,19.80
2018-06-25T18:24:39.271Z,19.70
2018-06-25T18:29:40.185Z,19.60
2018-06-25T18:32:10.930Z,19.50
2018-06-25T18:34:41.565Z,19.50
2018-06-25T18:37:12.263Z,19.50
2018-06-25T18:39:43.021Z,19.50
2018-06-25T18:42:14.822Z,19.40
2018-06-25T18:44:46.429Z,19.40
2018-06-25T18:47:17.132Z,19.30
2018-06-25T18:49:47.811Z,19.20
2018-06-25T18:52:18.688Z,19.20
2018-06-25T18:54:49.426Z,19.10
2018-06-25T18:57:20.158Z,19.10
2018-06-25T18:59:50.865Z,19.10
2018-06-25T19:02:21.676Z,19.00
2018-06-25T19:04:52.336Z,19.00
2018-06-25T19:07:23.086Z,18.90
2018-06-25T19:09:53.746Z,18.90
2018-06-25T19:12:24.410Z,18.90
2018-06-25T19:14:55.170Z,18.90
2018-06-25T19:17:25.943Z,18.90
2018-06-25T19:19:56.567Z,18.80
2018-06-25T19:22:27.370Z,18.70
2018-06-25T19:24:58.029Z,18.70
2018-06-25T19:27:28.711Z,18.70
2018-06-25T19:29:59.376Z,18.60
2018-06-25T19:32:30.718Z,18.60
2018-06-25T19:35:01.465Z,18.60
2018-06-25T19:40:03.077Z,18.50
2018-06-25T19:42:33.790Z,18.40
2018-06-25T19:45:04.718Z,18.40
2018-06-25T19:47:35.437Z,18.30
2018-06-25T19:50:06.233Z,18.30
2018-06-25T19:55:07.476Z,18.10
2018-06-25T19:57:38.162Z,18.10
2018-06-25T20:00:08.985Z,18.10
2018-06-25T20:02:39.759Z,18.00
2018-06-25T20:05:10.401Z,17.90
2018-06-25T20:07:41.057Z,17.90
2018-06-25T20:10:11.827Z,17.80
2018-06-25T20:12:42.556Z,17.80
2018-06-25T20:15:13.333Z,17.80
2018-06-25T20:17:44.079Z,17.80
2018-06-25T20:20:14.812Z,17.70
2018-06-25T20:22:45.538Z,17.70
2018-06-25T20:25:16.375Z,17.60
2018-06-25T20:27:47.064Z,17.60
2018-06-25T20:30:17.968Z,17.50
2018-06-25T20:32:48.621Z,17.50
2018-06-25T20:37:49.533Z,17.40
2018-06-25T20:40:20.186Z,17.30
2018-06-25T20:42:50.992Z,17.20
2018-06-25T20:45:21.738Z,17.20
2018-06-25T20:47:52.464Z,17.10
2018-06-25T20:50:23.058Z,17.10
2018-06-25T20:52:54.042Z,17.00
2018-06-25T20:55:24.742Z,16.90
2018-06-25T20:57:55.406Z,16.80
2018-06-25T21:00:26.031Z,16.80
2018-06-25T21:02:56.689Z,16.80
2018-06-25T21:05:27.434Z,16.70
2018-06-25T21:10:28.297Z,16.60
2018-06-25T21:12:59.008Z,16.60
2018-06-25T21:15:29.629Z,16.50
2018-06-25T21:18:00.412Z,16.50
2018-06-25T21:20:31.096Z,16.50
2018-06-25T21:23:01.856Z,16.40
2018-06-25T21:25:32.513Z,16.40
2018-06-25T21:28:03.225Z,16.30
2018-06-25T21:30:33.887Z,16.20
2018-06-25T21:33:04.611Z,16.20
2018-06-25T21:35:35.362Z,16.10
2018-06-25T21:38:06.466Z,16.10
2018-06-25T21:40:37.290Z,16.00
2018-06-25T21:45:38.173Z,16.00
2018-06-25T21:48:08.894Z,15.90
2018-06-25T21:50:39.686Z,15.90
2018-06-25T21:53:10.428Z,15.80
2018-06-25T21:55:41.180Z,15.70
2018-06-25T22:00:51.074Z,15.60
2018-06-25T22:03:21.813Z,15.60
2018-06-25T22:05:52.497Z,15.50
2018-06-25T22:08:23.258Z,15.50
2018-06-25T22:10:53.984Z,15.50
2018-06-25T22:13:24.636Z,15.50
2018-06-25T22:15:55.363Z,15.40
2018-06-25T22:18:26.053Z,15.30
2018-06-25T22:20:56.753Z,15.30
2018-06-25T22:23:27.500Z,15.20
2018-06-25T22:25:58.152Z,15.10
2018-06-25T22:28:28.800Z,15.00
2018-06-25T22:33:29.546Z,14.80
2018-06-25T22:36:00.122Z,14.80
2018-06-25T22:38:31.043Z,14.70
2018-06-25T22:41:01.657Z,14.70
2018-06-25T22:46:02.394Z,14.60
2018-06-25T22:48:32.988Z,14.50
2018-06-25T22:51:03.698Z,14.50
2018-06-25T22:53:34.588Z,14.50
2018-06-25T22:56:05.281Z,14.50
2018-06-25T22:58:37.563Z,14.50
2018-06-25T23:01:12.076Z,14.50
2018-06-25T23:03:42.847Z,14.50
2018-06-25T23:06:13.443Z,14.40
2018-06-25T23:08:44.242Z,14.40
2018-06-25T23:11:15.011Z,14.40
2018-06-25T23:13:45.666Z,14.40
2018-06-25T23:16:16.456Z,14.40
2018-06-25T23:18:47.173Z,14.40
2018-06-25T23:21:17.905Z,14.30
2018-06-25T23:23:48.618Z,14.30
2018-06-25T23:26:19.334Z,14.30
2018-06-25T23:28:50.024Z,14.30
2018-06-25T23:31:20.709Z,14.20
2018-06-25T23:33:51.420Z,14.10
2018-06-25T23:36:22.147Z,14.10
2018-06-25T23:38:52.774Z,14.10
2018-06-25T23:41:23.462Z,14.00
2018-06-25T23:43:54.112Z,13.90
2018-06-25T23:46:24.794Z,13.90
2018-06-25T23:48:55.399Z,13.80
2018-06-25T23:51:26.006Z,13.80
2018-06-25T23:53:56.870Z,13.70
2018-06-25T23:56:27.606Z,13.70
2018-06-25T23:58:58.398Z,13.70
